createdAt,value
2022-12-09T00:09:30.769Z,0.55
2022-12-09T00:19:30.928Z,0.58
2022-12-09T00:29:31.163Z,0.75
2022-12-09T00:39:31.185Z,0.79
2022-12-09T00:49:31.690Z,0.72
2022-12-09T00:59:31.542Z,0.53
2022-12-09T01:09:32.197Z,0.53
2022-12-09T01:19:31.893Z,0.66
2022-12-09T01:29:32.273Z,0.61
2022-12-09T01:39:32.271Z,0.66
2022-12-09T01:49:32.589Z,0.68
2022-12-09T01:59:32.868Z,0.61
2022-12-09T02:09:32.971Z,0.65
2022-12-09T02:19:33.026Z,0.57
2022-12-09T02:29:33.645Z,0.68
2022-12-09T02:39:33.604Z,0.75
2022-12-09T02:49:33.831Z,0.70
2022-12-09T02:59:34.504Z,0.73
2022-12-09T03:09:34.132Z,0.76
2022-12-09T03:19:34.331Z,0.86
2022-12-09T03:29:36.177Z,0.98
2022-12-09T03:39:34.410Z,1.05
2022-12-09T03:49:34.940Z,1.04
2022-12-09T03:59:34.863Z,0.87
2022-12-09T04:09:35.244Z,0.80
2022-12-09T04:19:35.264Z,0.84
2022-12-09T04:29:35.719Z,1.02
2022-12-09T04:39:36.044Z,1.05
2022-12-09T04:49:35.977Z,1.02
2022-12-09T04:59:36.257Z,0.97
2022-12-09T05:09:36.549Z,0.96
2022-12-09T05:19:36.724Z,0.90
2022-12-09T05:29:36.935Z,0.90
2022-12-09T05:39:36.874Z,0.90
2022-12-09T05:49:37.255Z,0.93
2022-12-09T05:59:37.135Z,0.58
2022-12-09T06:09:37.378Z,0.57
2022-12-09T06:19:37.691Z,0.75
2022-12-09T06:29:40.736Z,0.87
2022-12-09T06:39:37.630Z,0.91
2022-12-09T06:49:38.441Z,0.91
2022-12-09T06:59:38.171Z,0.86
2022-12-09T07:09:38.495Z,0.79
2022-12-09T07:19:38.746Z,1.00
2022-12-09T07:29:38.438Z,1.14
2022-12-09T07:39:38.836Z,1.24
2022-12-09T07:49:39.069Z,1.40
2022-12-09T07:59:39.132Z,1.42
2022-12-09T08:09:39.512Z,1.48
2022-12-09T08:19:39.533Z,1.45
2022-12-09T08:29:40.210Z,1.65
2022-12-09T08:39:39.865Z,1.77
2022-12-09T08:49:40.353Z,1.86
2022-12-09T08:59:45.061Z,1.88
2022-12-09T09:09:41.221Z,1.95
2022-12-09T09:19:40.886Z,2.03
2022-12-09T09:29:40.527Z,2.10
2022-12-09T09:39:40.641Z,2.10
2022-12-09T09:49:40.823Z,2.12
2022-12-09T09:59:41.226Z,2.16
2022-12-09T10:09:41.517Z,2.36
2022-12-09T10:19:42.779Z,2.46
2022-12-09T10:29:41.624Z,2.60
2022-12-09T10:39:42.002Z,2.43
2022-12-09T10:49:42.299Z,2.75
2022-12-09T10:59:44.345Z,2.93
2022-12-09T11:09:42.730Z,2.85
2022-12-09T11:19:42.737Z,3.36
2022-12-09T11:29:42.972Z,3.60
2022-12-09T11:39:42.702Z,3.62
2022-12-09T11:49:42.758Z,3.61
2022-12-09T11:59:43.878Z,3.69
2022-12-09T12:09:47.407Z,3.76
2022-12-09T12:19:43.064Z,3.79
2022-12-09T12:29:43.297Z,4.00
2022-12-09T12:39:43.542Z,4.08
2022-12-09T12:49:43.795Z,4.12
2022-12-09T12:59:44.106Z,4.04
2022-12-09T13:09:44.261Z,3.91
2022-12-09T13:19:44.288Z,3.88
2022-12-09T13:29:45.536Z,3.87
2022-12-09T13:39:44.763Z,3.91
2022-12-09T13:49:45.006Z,3.76
2022-12-09T13:59:45.243Z,3.86
2022-12-09T14:09:45.468Z,3.72
2022-12-09T14:19:45.696Z,3.79
2022-12-09T14:29:45.956Z,3.72
2022-12-09T14:39:46.221Z,3.57
2022-12-09T14:49:49.448Z,3.47
2022-12-09T14:59:46.516Z,3.43
2022-12-09T15:09:46.956Z,3.42
2022-12-09T15:20:02.172Z,3.45
2022-12-09T15:29:48.153Z,3.36
2022-12-09T15:39:47.528Z,3.31
2022-12-09T15:49:51.516Z,3.31
2022-12-09T15:59:53.922Z,3.21
2022-12-09T16:09:49.091Z,3.23
2022-12-09T16:19:48.109Z,3.15
2022-12-09T16:29:48.432Z,3.14
2022-12-09T16:39:48.664Z,3.13
2022-12-09T16:49:48.820Z,3.17
2022-12-09T16:59:49.039Z,3.06
2022-12-09T17:10:10.157Z,3.08
2022-12-09T17:19:49.300Z,2.87
2022-12-09T17:29:49.504Z,2.84
2022-12-09T17:39:54.604Z,2.90
2022-12-09T17:49:50.717Z,2.82
2022-12-09T17:59:50.082Z,2.77
2022-12-09T18:09:54.483Z,2.81
2022-12-09T18:19:51.270Z,2.74
2022-12-09T18:29:50.620Z,2.67
2022-12-09T18:39:50.514Z,2.72
2022-12-09T18:49:50.827Z,2.71
2022-12-09T18:59:51.789Z,2.57
2022-12-09T19:09:52.389Z,2.59
2022-12-09T19:19:52.045Z,2.61
2022-12-09T19:29:51.859Z,2.59
2022-12-09T19:39:52.001Z,2.66
2022-12-09T19:49:52.187Z,2.63
2022-12-09T19:59:52.332Z,2.67
2022-12-09T20:09:52.549Z,2.54
2022-12-09T20:19:52.654Z,2.54
2022-12-09T20:29:54.764Z,2.59
2022-12-09T20:39:52.979Z,2.66
2022-12-09T20:49:53.240Z,2.66
2022-12-09T20:59:53.336Z,2.66
2022-12-09T21:09:53.349Z,2.72
2022-12-09T21:19:54.431Z,2.69
2022-12-09T21:29:53.884Z,2.77
2022-12-09T21:39:53.884Z,2.85
2022-12-09T21:49:55.852Z,2.74
2022-12-09T21:59:53.866Z,2.74
2022-12-09T22:09:54.155Z,2.78
2022-12-09T22:20:22.507Z,2.79
2022-12-09T22:29:55.453Z,2.72
2022-12-09T22:39:54.713Z,2.84
2022-12-09T22:49:54.943Z,2.81
2022-12-09T22:59:55.282Z,2.78
2022-12-09T23:09:55.310Z,2.79
2022-12-09T23:19:55.665Z,2.72
2022-12-09T23:29:55.694Z,2.77
2022-12-09T23:39:56.013Z,2.66
2022-12-09T23:49:56.042Z,2.69
2022-12-09T23:59:56.297Z,2.59
